sensor_id;sensor_type;location;lat;lon;timestamp;temperature;humidity
55026;DHT22;40925;45.666;18.994;2023-07-20T00:01:25;538.20;2406.40
55026;DHT22;40925;45.666;18.994;2023-07-20T00:03:51;538.10;2406.40
55026;DHT22;40925;45.666;18.994;2023-07-20T00:06:24;538.10;2406.40
55026;DHT22;40925;45.666;18.994;2023-07-20T00:08:51;538.10;2406.40
55026;DHT22;40925;45.666;18.994;2023-07-20T00:11:17;538.10;2406.40
55026;DHT22;40925;45.666;18.994;2023-07-20T00:13:43;538.10;2406.40
55026;DHT22;40925;45.666;18.994;2023-07-20T00:16:08;538.20;2406.40
55026;DHT22;40925;45.666;18.994;2023-07-20T00:18:34;538.00;2406.40
55026;DHT22;40925;45.666;18.994;2023-07-20T00:21:00;538.00;2406.40
55026;DHT22;40925;45.666;18.994;2023-07-20T00:23:27;538.40;2406.40
55026;DHT22;40925;45.666;18.994;2023-07-20T00:25:53;538.10;2406.40
55026;DHT22;40925;45.666;18.994;2023-07-20T00:28:19;538.20;2406.40
55026;DHT22;40925;45.666;18.994;2023-07-20T00:30:45;538.10;2406.40
55026;DHT22;40925;45.666;18.994;2023-07-20T00:33:11;538.00;2406.40
55026;DHT22;40925;45.666;18.994;2023-07-20T00:35:38;537.90;2406.40
55026;DHT22;40925;45.666;18.994;2023-07-20T00:38:04;537.70;2406.40
55026;DHT22;40925;45.666;18.994;2023-07-20T00:47:59;512.70;2380.80
55026;DHT22;40925;45.666;18.994;2023-07-20T00:50:28;512.60;2380.80
55026;DHT22;40925;45.666;18.994;2023-07-20T00:52:55;512.30;2380.80
55026;DHT22;40925;45.666;18.994;2023-07-20T00:55:23;512.20;2380.80
55026;DHT22;40925;45.666;18.994;2023-07-20T00:57:49;512.00;2380.80
55026;DHT22;40925;45.666;18.994;2023-07-20T01:00:15;487.10;2380.80
55026;DHT22;40925;45.666;18.994;2023-07-20T01:02:41;487.20;2380.80
55026;DHT22;40925;45.666;18.994;2023-07-20T01:05:07;487.20;2380.80
55026;DHT22;40925;45.666;18.994;2023-07-20T01:07:50;487.20;2380.80
55026;DHT22;40925;45.666;18.994;2023-07-20T01:10:31;487.00;2380.80
55026;DHT22;40925;45.666;18.994;2023-07-20T01:12:57;487.00;2380.80
55026;DHT22;40925;45.666;18.994;2023-07-20T01:15:23;486.80;2380.80
55026;DHT22;40925;45.666;18.994;2023-07-20T01:17:49;486.80;2380.80
55026;DHT22;40925;45.666;18.994;2023-07-20T01:33:48;486.60;2380.80
55026;DHT22;40925;45.666;18.994;2023-07-20T01:36:18;486.80;2380.80
55026;DHT22;40925;45.666;18.994;2023-07-20T01:38:44;487.00;2380.80
55026;DHT22;40925;45.666;18.994;2023-07-20T01:41:11;486.90;2380.80
55026;DHT22;40925;45.666;18.994;2023-07-20T01:43:37;486.80;2380.80
55026;DHT22;40925;45.666;18.994;2023-07-20T01:46:03;486.80;2380.80
55026;DHT22;40925;45.666;18.994;2023-07-20T01:48:28;486.60;2380.80
55026;DHT22;40925;45.666;18.994;2023-07-20T01:50:54;486.70;2380.80
55026;DHT22;40925;45.666;18.994;2023-07-20T01:53:20;486.70;2380.80
55026;DHT22;40925;45.666;18.994;2023-07-20T01:55:46;486.80;2380.80
55026;DHT22;40925;45.666;18.994;2023-07-20T01:58:12;486.90;2380.80
55026;DHT22;40925;45.666;18.994;2023-07-20T02:00:38;487.00;2380.80
55026;DHT22;40925;45.666;18.994;2023-07-20T02:03:04;487.00;2380.80
55026;DHT22;40925;45.666;18.994;2023-07-20T02:05:30;487.00;2380.80
55026;DHT22;40925;45.666;18.994;2023-07-20T02:07:56;487.00;2380.80
55026;DHT22;40925;45.666;18.994;2023-07-20T02:10:22;487.00;2380.80
55026;DHT22;40925;45.666;18.994;2023-07-20T02:12:47;486.90;2380.80
55026;DHT22;40925;45.666;18.994;2023-07-20T02:15:14;486.80;2380.80
55026;DHT22;40925;45.666;18.994;2023-07-20T02:17:42;486.90;2380.80
55026;DHT22;40925;45.666;18.994;2023-07-20T02:20:08;486.90;2380.80
55026;DHT22;40925;45.666;18.994;2023-07-20T02:22:36;487.00;2380.80
55026;DHT22;40925;45.666;18.994;2023-07-20T02:25:06;487.20;2380.80
55026;DHT22;40925;45.666;18.994;2023-07-20T02:27:35;487.30;2380.80
55026;DHT22;40925;45.666;18.994;2023-07-20T02:30:02;487.30;2380.80
55026;DHT22;40925;45.666;18.994;2023-07-20T02:32:28;512.00;2380.80
55026;DHT22;40925;45.666;18.994;2023-07-20T02:34:54;512.00;2380.80
55026;DHT22;40925;45.666;18.994;2023-07-20T02:37:19;512.10;2380.80
55026;DHT22;40925;45.666;18.994;2023-07-20T02:39:45;512.10;2380.80
55026;DHT22;40925;45.666;18.994;2023-07-20T02:42:11;512.10;2380.80
55026;DHT22;40925;45.666;18.994;2023-07-20T02:44:36;512.20;2380.80
55026;DHT22;40925;45.666;18.994;2023-07-20T02:47:02;512.30;2380.80
55026;DHT22;40925;45.666;18.994;2023-07-20T02:49:28;512.40;2380.80
55026;DHT22;40925;45.666;18.994;2023-07-20T02:51:54;512.50;2380.80
55026;DHT22;40925;45.666;18.994;2023-07-20T02:54:21;512.50;2380.80
55026;DHT22;40925;45.666;18.994;2023-07-20T02:56:46;512.60;2380.80
55026;DHT22;40925;45.666;18.994;2023-07-20T02:59:12;512.80;2380.80
55026;DHT22;40925;45.666;18.994;2023-07-20T03:01:38;512.60;2380.80
55026;DHT22;40925;45.666;18.994;2023-07-20T03:04:04;512.70;2380.80
55026;DHT22;40925;45.666;18.994;2023-07-20T03:06:30;512.70;2380.80
55026;DHT22;40925;45.666;18.994;2023-07-20T03:08:55;512.80;2380.80
55026;DHT22;40925;45.666;18.994;2023-07-20T03:11:22;512.80;2380.80
55026;DHT22;40925;45.666;18.994;2023-07-20T03:13:48;512.80;2380.80
55026;DHT22;40925;45.666;18.994;2023-07-20T03:16:17;512.80;2380.80
55026;DHT22;40925;45.666;18.994;2023-07-20T03:26:06;512.80;2380.80
55026;DHT22;40925;45.666;18.994;2023-07-20T03:28:34;512.80;2380.80
55026;DHT22;40925;45.666;18.994;2023-07-20T03:31:00;512.80;2380.80
55026;DHT22;40925;45.666;18.994;2023-07-20T03:33:27;512.80;2380.80
55026;DHT22;40925;45.666;18.994;2023-07-20T03:40:58;537.70;2406.40
55026;DHT22;40925;45.666;18.994;2023-07-20T03:43:25;537.60;2406.40
55026;DHT22;40925;45.666;18.994;2023-07-20T03:45:52;512.90;2380.80
55026;DHT22;40925;45.666;18.994;2023-07-20T03:48:22;512.90;2380.80
55026;DHT22;40925;45.666;18.994;2023-07-20T03:50:49;512.90;2380.80
55026;DHT22;40925;45.666;18.994;2023-07-20T03:53:16;512.90;2380.80
55026;DHT22;40925;45.666;18.994;2023-07-20T03:55:46;512.90;2380.80
55026;DHT22;40925;45.666;18.994;2023-07-20T04:12:50;537.90;2406.40
55026;DHT22;40925;45.666;18.994;2023-07-20T04:15:16;537.70;2406.40
55026;DHT22;40925;45.666;18.994;2023-07-20T04:17:42;537.70;2406.40
55026;DHT22;40925;45.666;18.994;2023-07-20T04:20:08;537.70;2406.40
55026;DHT22;40925;45.666;18.994;2023-07-20T04:22:34;537.70;2406.40
55026;DHT22;40925;45.666;18.994;2023-07-20T04:25:00;537.70;2406.40
55026;DHT22;40925;45.666;18.994;2023-07-20T04:27:25;537.70;2406.40
55026;DHT22;40925;45.666;18.994;2023-07-20T04:29:52;537.70;2406.40
55026;DHT22;40925;45.666;18.994;2023-07-20T04:32:17;537.70;2406.40
55026;DHT22;40925;45.666;18.994;2023-07-20T04:34:43;537.70;2406.40
55026;DHT22;40925;45.666;18.994;2023-07-20T04:37:09;537.70;2406.40
55026;DHT22;40925;45.666;18.994;2023-07-20T04:39:35;537.60;2406.40
55026;DHT22;40925;45.666;18.994;2023-07-20T04:42:00;537.60;2406.40
55026;DHT22;40925;45.666;18.994;2023-07-20T04:44:26;512.90;2380.80
55026;DHT22;40925;45.666;18.994;2023-07-20T04:46:52;537.60;2406.40
55026;DHT22;40925;45.666;18.994;2023-07-20T04:49:18;537.70;2406.40
55026;DHT22;40925;45.666;18.994;2023-07-20T04:51:44;537.60;2406.40
55026;DHT22;40925;45.666;18.994;2023-07-20T04:54:10;537.70;2406.40
55026;DHT22;40925;45.666;18.994;2023-07-20T04:56:36;537.70;2406.40
55026;DHT22;40925;45.666;18.994;2023-07-20T04:59:01;537.70;2406.40
55026;DHT22;40925;45.666;18.994;2023-07-20T05:01:27;537.70;2406.40
55026;DHT22;40925;45.666;18.994;2023-07-20T05:03:53;537.70;2406.40
55026;DHT22;40925;45.666;18.994;2023-07-20T05:06:19;537.70;2406.40
55026;DHT22;40925;45.666;18.994;2023-07-20T05:08:44;537.70;2406.40
55026;DHT22;40925;45.666;18.994;2023-07-20T05:11:11;537.70;2406.40
55026;DHT22;40925;45.666;18.994;2023-07-20T05:13:37;537.70;2406.40
55026;DHT22;40925;45.666;18.994;2023-07-20T05:16:03;537.70;2406.40
55026;DHT22;40925;45.666;18.994;2023-07-20T05:18:29;537.70;2406.40
55026;DHT22;40925;45.666;18.994;2023-07-20T05:20:54;537.60;2406.40
55026;DHT22;40925;45.666;18.994;2023-07-20T05:23:20;537.70;2406.40
55026;DHT22;40925;45.666;18.994;2023-07-20T05:28:13;538.10;2406.40
55026;DHT22;40925;45.666;18.994;2023-07-20T05:30:40;537.90;2406.40
55026;DHT22;40925;45.666;18.994;2023-07-20T05:33:05;537.90;2406.40
55026;DHT22;40925;45.666;18.994;2023-07-20T05:35:31;538.00;2406.40
55026;DHT22;40925;45.666;18.994;2023-07-20T05:37:57;538.10;2406.40
55026;DHT22;40925;45.666;18.994;2023-07-20T05:40:23;538.10;2406.40
55026;DHT22;40925;45.666;18.994;2023-07-20T05:42:49;538.00;2406.40
55026;DHT22;40925;45.666;18.994;2023-07-20T08:45:54;717.30;2432.00
55026;DHT22;40925;45.666;18.994;2023-07-20T08:50:49;742.40;2432.00
55026;DHT22;40925;45.666;18.994;2023-07-20T08:58:12;743.00;2432.00
55026;DHT22;40925;45.666;18.994;2023-07-20T09:03:08;743.10;2432.00
55026;DHT22;40925;45.666;18.994;2023-07-20T09:08:02;768.00;2432.00
55026;DHT22;40925;45.666;18.994;2023-07-20T09:10:29;768.00;2432.00
55026;DHT22;40925;45.666;18.994;2023-07-20T09:12:55;768.30;2432.00
55026;DHT22;40925;45.666;18.994;2023-07-20T09:17:49;768.80;2406.40
55026;DHT22;40925;45.666;18.994;2023-07-20T09:20:19;768.90;2432.00
55026;DHT22;40925;45.666;18.994;2023-07-20T09:22:46;768.70;2380.80
55026;DHT22;40925;45.666;18.994;2023-07-20T09:25:18;768.70;2329.60
55026;DHT22;40925;45.666;18.994;2023-07-20T09:35:20;794.20;2227.20
55026;DHT22;40925;45.666;18.994;2023-07-20T09:42:55;819.70;2048.00
55026;DHT22;40925;45.666;18.994;2023-07-20T09:45:32;819.60;2022.40
55026;DHT22;40925;45.666;18.994;2023-07-20T09:48:09;819.70;1996.80
55026;DHT22;40925;45.666;18.994;2023-07-20T09:50:42;819.80;2048.00
55026;DHT22;40925;45.666;18.994;2023-07-20T10:00:29;845.30;1945.60
55026;DHT22;40925;45.666;18.994;2023-07-20T10:02:56;844.90;1996.80
55026;DHT22;40925;45.666;18.994;2023-07-20T10:05:24;845.00;1971.20
55026;DHT22;40925;45.666;18.994;2023-07-20T10:07:54;845.60;1945.60
55026;DHT22;40925;45.666;18.994;2023-07-20T10:10:20;845.40;1894.40
55026;DHT22;40925;45.666;18.994;2023-07-20T10:12:48;845.20;1945.60
55026;DHT22;40925;45.666;18.994;2023-07-20T10:15:24;845.20;1920.00
55026;DHT22;40925;45.666;18.994;2023-07-20T10:20:32;870.50;1894.40
55026;DHT22;40925;45.666;18.994;2023-07-20T10:22:59;845.20;1894.40
55026;DHT22;40925;45.666;18.994;2023-07-20T10:25:25;845.50;1740.80
55026;DHT22;40925;45.666;18.994;2023-07-20T10:31:14;870.40;1689.60
55026;DHT22;40925;45.666;18.994;2023-07-20T10:38:41;871.00;1638.40
55026;DHT22;40925;45.666;18.994;2023-07-20T10:43:59;871.00;1638.40
55026;DHT22;40925;45.666;18.994;2023-07-20T10:53:57;871.30;1587.20
55026;DHT22;40925;45.666;18.994;2023-07-20T10:56:27;871.20;1587.20
55026;DHT22;40925;45.666;18.994;2023-07-20T10:59:00;870.90;1561.60
55026;DHT22;40925;45.666;18.994;2023-07-20T11:01:30;871.00;1536.00
55026;DHT22;40925;45.666;18.994;2023-07-20T11:03:59;871.00;1536.00
55026;DHT22;40925;45.666;18.994;2023-07-20T11:06:29;871.10;1510.40
55026;DHT22;40925;45.666;18.994;2023-07-20T11:14:00;896.00;1459.20
55026;DHT22;40925;45.666;18.994;2023-07-20T11:16:45;896.00;1433.60
55026;DHT22;40925;45.666;18.994;2023-07-20T11:21:42;871.20;1484.80
55026;DHT22;40925;45.666;18.994;2023-07-20T11:24:08;896.00;1459.20
55026;DHT22;40925;45.666;18.994;2023-07-20T11:27:01;896.20;1459.20
55026;DHT22;40925;45.666;18.994;2023-07-20T12:45:55;896.20;1459.20
55026;DHT22;40925;45.666;18.994;2023-07-20T12:48:21;870.80;1484.80
55026;DHT22;40925;45.666;18.994;2023-07-20T12:50:47;870.80;1510.40
55026;DHT22;40925;45.666;18.994;2023-07-20T12:53:13;871.20;1484.80
55026;DHT22;40925;45.666;18.994;2023-07-20T12:55:39;871.30;1459.20
55026;DHT22;40925;45.666;18.994;2023-07-20T12:58:06;896.10;1459.20
55026;DHT22;40925;45.666;18.994;2023-07-20T13:00:32;896.60;1433.60
55026;DHT22;40925;45.666;18.994;2023-07-20T13:02:58;921.90;1382.40
55026;DHT22;40925;45.666;18.994;2023-07-20T13:05:23;921.90;1433.60
55026;DHT22;40925;45.666;18.994;2023-07-20T13:07:49;921.80;1433.60
55026;DHT22;40925;45.666;18.994;2023-07-20T13:10:15;896.90;1408.00
55026;DHT22;40925;45.666;18.994;2023-07-20T13:12:41;921.60;1408.00
55026;DHT22;40925;45.666;18.994;2023-07-20T13:15:08;896.80;1382.40
55026;DHT22;40925;45.666;18.994;2023-07-20T13:17:40;896.90;1408.00
55026;DHT22;40925;45.666;18.994;2023-07-20T13:20:07;921.60;1408.00
55026;DHT22;40925;45.666;18.994;2023-07-20T13:22:35;921.70;1433.60
55026;DHT22;40925;45.666;18.994;2023-07-20T13:49:33;922.50;1305.60
55026;DHT22;40925;45.666;18.994;2023-07-20T13:51:59;921.60;1356.80
55026;DHT22;40925;45.666;18.994;2023-07-20T13:54:25;921.80;1408.00
55026;DHT22;40925;45.666;18.994;2023-07-20T13:56:51;921.90;1356.80
55026;DHT22;40925;45.666;18.994;2023-07-20T13:59:20;947.20;1356.80
55026;DHT22;40925;45.666;18.994;2023-07-20T14:01:46;922.40;1331.20
55026;DHT22;40925;45.666;18.994;2023-07-20T14:04:12;947.50;1331.20
55026;DHT22;40925;45.666;18.994;2023-07-20T14:06:38;922.50;1305.60
55026;DHT22;40925;45.666;18.994;2023-07-20T14:09:04;922.50;1305.60
55026;DHT22;40925;45.666;18.994;2023-07-20T14:11:29;922.40;1305.60
55026;DHT22;40925;45.666;18.994;2023-07-20T14:13:55;947.20;1305.60
55026;DHT22;40925;45.666;18.994;2023-07-20T14:16:23;922.40;1305.60
55026;DHT22;40925;45.666;18.994;2023-07-20T14:18:50;922.40;1305.60
55026;DHT22;40925;45.666;18.994;2023-07-20T14:21:20;922.30;1305.60
55026;DHT22;40925;45.666;18.994;2023-07-20T14:23:50;922.40;1280.00
55026;DHT22;40925;45.666;18.994;2023-07-20T14:26:17;922.20;1280.00
55026;DHT22;40925;45.666;18.994;2023-07-20T14:28:43;922.30;1280.00
55026;DHT22;40925;45.666;18.994;2023-07-20T14:31:09;922.50;1254.40
55026;DHT22;40925;45.666;18.994;2023-07-20T14:33:34;922.40;1228.80
55026;DHT22;40925;45.666;18.994;2023-07-20T14:36:01;922.50;1228.80
55026;DHT22;40925;45.666;18.994;2023-07-20T14:38:31;922.50;1228.80
55026;DHT22;40925;45.666;18.994;2023-07-20T14:40:57;922.50;1228.80
55026;DHT22;40925;45.666;18.994;2023-07-20T14:43:23;922.40;1228.80
55026;DHT22;40925;45.666;18.994;2023-07-20T14:45:48;922.40;1228.80
55026;DHT22;40925;45.666;18.994;2023-07-20T14:48:14;922.30;1228.80
55026;DHT22;40925;45.666;18.994;2023-07-20T14:50:40;922.20;1228.80
55026;DHT22;40925;45.666;18.994;2023-07-20T14:53:06;922.20;1228.80
55026;DHT22;40925;45.666;18.994;2023-07-20T14:55:33;922.30;1228.80
55026;DHT22;40925;45.666;18.994;2023-07-20T14:57:59;922.30;1228.80
55026;DHT22;40925;45.666;18.994;2023-07-20T15:00:25;922.20;1203.20
55026;DHT22;40925;45.666;18.994;2023-07-20T15:02:51;922.30;1228.80
55026;DHT22;40925;45.666;18.994;2023-07-20T15:05:23;922.00;1203.20
55026;DHT22;40925;45.666;18.994;2023-07-20T15:07:49;921.90;1203.20
55026;DHT22;40925;45.666;18.994;2023-07-20T15:10:16;922.10;1228.80
55026;DHT22;40925;45.666;18.994;2023-07-20T15:12:42;921.90;1228.80
55026;DHT22;40925;45.666;18.994;2023-07-20T15:15:09;921.90;1254.40
55026;DHT22;40925;45.666;18.994;2023-07-20T15:17:36;921.70;1254.40
55026;DHT22;40925;45.666;18.994;2023-07-20T15:20:04;921.90;1254.40
55026;DHT22;40925;45.666;18.994;2023-07-20T15:22:30;922.10;1228.80
55026;DHT22;40925;45.666;18.994;2023-07-20T15:24:56;921.90;1228.80
55026;DHT22;40925;45.666;18.994;2023-07-20T15:27:23;921.80;1228.80
55026;DHT22;40925;45.666;18.994;2023-07-20T15:29:52;921.60;1228.80
55026;DHT22;40925;45.666;18.994;2023-07-20T15:32:18;921.60;1254.40
55026;DHT22;40925;45.666;18.994;2023-07-20T15:34:44;921.60;1254.40
55026;DHT22;40925;45.666;18.994;2023-07-20T15:37:11;921.70;1228.80
55026;DHT22;40925;45.666;18.994;2023-07-20T15:39:37;896.90;1203.20
55026;DHT22;40925;45.666;18.994;2023-07-20T15:42:03;921.60;1228.80
55026;DHT22;40925;45.666;18.994;2023-07-20T15:44:29;896.70;1203.20
55026;DHT22;40925;45.666;18.994;2023-07-20T15:46:55;896.60;1228.80
55026;DHT22;40925;45.666;18.994;2023-07-20T15:49:21;896.60;1228.80
55026;DHT22;40925;45.666;18.994;2023-07-20T15:56:41;896.80;1203.20
55026;DHT22;40925;45.666;18.994;2023-07-20T15:59:09;896.50;1203.20
55026;DHT22;40925;45.666;18.994;2023-07-20T16:01:35;896.50;1203.20
55026;DHT22;40925;45.666;18.994;2023-07-20T16:04:02;896.40;1203.20
55026;DHT22;40925;45.666;18.994;2023-07-20T16:06:28;896.50;1203.20
55026;DHT22;40925;45.666;18.994;2023-07-20T16:08:54;896.50;1203.20
55026;DHT22;40925;45.666;18.994;2023-07-20T16:11:19;896.40;1203.20
55026;DHT22;40925;45.666;18.994;2023-07-20T16:13:50;896.40;1203.20
55026;DHT22;40925;45.666;18.994;2023-07-20T16:16:16;896.30;1203.20
55026;DHT22;40925;45.666;18.994;2023-07-20T16:18:42;896.00;1203.20
55026;DHT22;40925;45.666;18.994;2023-07-20T16:21:07;896.00;1203.20
55026;DHT22;40925;45.666;18.994;2023-07-20T16:23:33;871.30;1228.80
55026;DHT22;40925;45.666;18.994;2023-07-20T16:25:59;871.20;1254.40
55026;DHT22;40925;45.666;18.994;2023-07-20T16:28:25;871.20;1254.40
55026;DHT22;40925;45.666;18.994;2023-07-20T16:30:51;871.20;1254.40
55026;DHT22;40925;45.666;18.994;2023-07-20T16:33:17;871.20;1254.40
55026;DHT22;40925;45.666;18.994;2023-07-20T16:35:43;871.10;1254.40
55026;DHT22;40925;45.666;18.994;2023-07-20T16:38:09;871.00;1254.40
55026;DHT22;40925;45.666;18.994;2023-07-20T16:40:39;870.90;1280.00
55026;DHT22;40925;45.666;18.994;2023-07-20T16:43:04;870.90;1305.60
55026;DHT22;40925;45.666;18.994;2023-07-20T16:50:25;870.80;1280.00
55026;DHT22;40925;45.666;18.994;2023-07-20T16:52:51;870.60;1305.60
55026;DHT22;40925;45.666;18.994;2023-07-20T16:55:17;870.60;1305.60
55026;DHT22;40925;45.666;18.994;2023-07-20T16:57:43;870.60;1305.60
55026;DHT22;40925;45.666;18.994;2023-07-20T17:00:09;870.40;1331.20
55026;DHT22;40925;45.666;18.994;2023-07-20T17:02:38;845.70;1305.60
55026;DHT22;40925;45.666;18.994;2023-07-20T17:05:04;845.60;1331.20
55026;DHT22;40925;45.666;18.994;2023-07-20T17:07:38;845.60;1331.20
55026;DHT22;40925;45.666;18.994;2023-07-20T17:10:06;845.30;1331.20
55026;DHT22;40925;45.666;18.994;2023-07-20T17:12:33;845.40;1331.20
55026;DHT22;40925;45.666;18.994;2023-07-20T17:14:59;845.20;1331.20
55026;DHT22;40925;45.666;18.994;2023-07-20T17:17:26;845.00;1356.80
55026;DHT22;40925;45.666;18.994;2023-07-20T17:19:52;845.10;1356.80
55026;DHT22;40925;45.666;18.994;2023-07-20T17:22:17;844.80;1382.40
55026;DHT22;40925;45.666;18.994;2023-07-20T17:24:43;844.80;1382.40
55026;DHT22;40925;45.666;18.994;2023-07-20T17:27:09;844.80;1382.40
55026;DHT22;40925;45.666;18.994;2023-07-20T17:32:01;844.80;1382.40
55026;DHT22;40925;45.666;18.994;2023-07-20T17:34:26;819.70;1382.40
55026;DHT22;40925;45.666;18.994;2023-07-20T17:39:18;819.60;1331.20
55026;DHT22;40925;45.666;18.994;2023-07-20T17:41:44;819.50;1331.20
55026;DHT22;40925;45.666;18.994;2023-07-20T17:51:30;794.40;1331.20
55026;DHT22;40925;45.666;18.994;2023-07-20T17:53:57;794.20;1356.80
55026;DHT22;40925;45.666;18.994;2023-07-20T17:56:22;794.10;1356.80
55026;DHT22;40925;45.666;18.994;2023-07-20T17:58:48;793.90;1356.80
55026;DHT22;40925;45.666;18.994;2023-07-20T18:03:40;768.90;1331.20
55026;DHT22;40925;45.666;18.994;2023-07-20T18:06:06;768.80;1331.20
55026;DHT22;40925;45.666;18.994;2023-07-20T18:08:33;768.50;1356.80
55026;DHT22;40925;45.666;18.994;2023-07-20T18:11:05;768.30;1433.60
55026;DHT22;40925;45.666;18.994;2023-07-20T18:13:31;768.30;1433.60
55026;DHT22;40925;45.666;18.994;2023-07-20T18:40:22;742.80;1459.20
55026;DHT22;40925;45.666;18.994;2023-07-20T18:47:42;742.70;1484.80
55026;DHT22;40925;45.666;18.994;2023-07-20T19:49:22;691.20;1664.00
55026;DHT22;40925;45.666;18.994;2023-07-20T19:51:48;666.40;1689.60
55026;DHT22;40925;45.666;18.994;2023-07-20T19:54:14;666.20;1689.60
55026;DHT22;40925;45.666;18.994;2023-07-20T23:04:02;589.50;2048.00
55026;DHT22;40925;45.666;18.994;2023-07-20T23:06:28;589.30;2099.20
55026;DHT22;40925;45.666;18.994;2023-07-20T23:08:54;589.30;2099.20
55026;DHT22;40925;45.666;18.994;2023-07-20T23:11:19;589.30;2099.20
55026;DHT22;40925;45.666;18.994;2023-07-20T23:13:45;589.30;2099.20
55026;DHT22;40925;45.666;18.994;2023-07-20T23:16:11;589.30;2073.60
55026;DHT22;40925;45.666;18.994;2023-07-20T23:18:37;589.30;2073.60
55026;DHT22;40925;45.666;18.994;2023-07-20T23:21:03;589.30;2099.20
55026;DHT22;40925;45.666;18.994;2023-07-20T23:23:29;589.40;2099.20
55026;DHT22;40925;45.666;18.994;2023-07-20T23:25:56;589.30;2150.40
